Time;durP1;ratioP1;P1;durP2;ratioP2;P2;SDS_P1;SDS_P2;PMS_P1;PMS_P2;Temp;Humidity;BMP_temperature;BMP_pressure;BME280_temperature;BME280_humidity;BME280_pressure;Samples;Min_cycle;Max_cycle;Signal;HPM_P1;HPM_P2
2023/06/24 00:02:42;;;;;;;13.60;12.02;;;;;;;;;;10032902;29;20047;-69
2023/06/24 00:07:44;;;;;;;16.23;12.90;;;;;;;;;;10034800;29;20047;-69
2023/06/24 00:12:41;;;;;;;13.70;12.25;;;;;;;;;;10030450;29;20046;-69
2023/06/24 00:17:38;;;;;;;12.95;11.65;;;;;;;;;;10032806;29;20062;-69
2023/06/24 00:22:34;;;;;;;14.10;12.60;;;;;;;;;;10036284;29;20054;-70
2023/06/24 00:27:30;;;;;;;15.73;14.23;;;;;;;;;;10033764;29;20510;-70
2023/06/24 00:32:27;;;;;;;13.82;12.43;;;;;;;;;;10036510;29;20071;-70
2023/06/24 00:37:23;;;;;;;19.02;13.90;;;;;;;;;;10030305;29;20502;-70
2023/06/24 00:42:19;;;;;;;16.88;15.10;;;;;;;;;;10035501;29;20047;-69
2023/06/24 00:47:16;;;;;;;17.38;15.23;;;;;;;;;;10029682;29;20075;-70
2023/06/24 00:52:16;;;;;;;17.15;15.00;;;;;;;;;;10034671;29;20532;-70
2023/06/24 00:57:12;;;;;;;15.65;14.10;;;;;;;;;;10031851;29;20052;-70
2023/06/24 01:02:09;;;;;;;16.45;13.60;;;;;;;;;;10031701;29;20043;-70
2023/06/24 01:07:06;;;;;;;17.85;14.60;;;;;;;;;;10029603;29;20051;-70
2023/06/24 01:12:02;;;;;;;15.48;13.93;;;;;;;;;;10030587;29;20074;-70
2023/06/24 01:17:03;;;;;;;15.75;14.05;;;;;;;;;;10027542;29;20044;-70
2023/06/24 01:22:11;;;;;;;17.60;14.85;;;;;;;;;;10028645;29;20525;-71
2023/06/24 01:27:10;;;;;;;17.95;13.75;;;;;;;;;;10011009;29;20048;-69
2023/06/24 01:32:15;;;;;;;15.68;12.23;;;;;;;;;;10029276;29;20514;-76
2023/06/24 01:37:15;;;;;;;16.85;14.10;;;;;;;;;;10033069;29;20091;-76
2023/06/24 01:42:13;;;;;;;14.27;12.75;;;;;;;;;;10025755;29;20426;-75
2023/06/24 01:47:10;;;;;;;18.50;13.15;;;;;;;;;;10031739;29;20048;-73
2023/06/24 01:52:10;;;;;;;16.45;13.30;;;;;;;;;;10032061;29;20051;-73
2023/06/24 01:57:20;;;;;;;14.88;13.27;;;;;;;;;;10030552;29;20063;-74
2023/06/24 02:02:20;;;;;;;15.18;12.88;;;;;;;;;;10029185;29;20044;-73
2023/06/24 02:07:18;;;;;;;17.77;13.20;;;;;;;;;;10043012;29;20410;-73
2023/06/24 02:12:15;;;;;;;14.68;13.15;;;;;;;;;;10041794;29;20051;-73
2023/06/24 02:17:12;;;;;;;14.68;13.13;;;;;;;;;;10043699;29;20050;-70
2023/06/24 02:22:09;;;;;;;14.45;13.02;;;;;;;;;;10044376;29;20055;-70
2023/06/24 02:27:06;;;;;;;15.93;13.82;;;;;;;;;;10037095;29;20057;-71
2023/06/24 02:32:02;;;;;;;15.75;14.18;;;;;;;;;;10043192;29;20047;-71
2023/06/24 02:36:59;;;;;;;16.20;14.52;;;;;;;;;;10026735;29;20099;-73
2023/06/24 02:41:55;;;;;;;24.67;15.48;;;;;;;;;;10026543;29;20067;-72
2023/06/24 02:46:52;;;;;;;14.13;12.82;;;;;;;;;;10036057;29;20050;-71
2023/06/24 02:51:49;;;;;;;15.70;13.00;;;;;;;;;;10039886;29;20054;-70
2023/06/24 02:56:45;;;;;;;16.75;14.63;;;;;;;;;;10037092;29;20177;-70
2023/06/24 03:01:45;;;;;;;17.13;13.88;;;;;;;;;;10044427;29;20051;-72
2023/06/24 03:06:41;;;;;;;15.73;14.02;;;;;;;;;;10037716;29;20043;-72
2023/06/24 03:11:41;;;;;;;16.17;13.77;;;;;;;;;;10043495;29;20532;-74
2023/06/24 03:16:38;;;;;;;16.67;14.98;;;;;;;;;;10028363;29;20149;-72
2023/06/24 03:21:34;;;;;;;15.43;13.90;;;;;;;;;;10020839;29;20071;-72
2023/06/24 03:26:32;;;;;;;16.45;14.80;;;;;;;;;;10036077;29;20106;-75
2023/06/24 03:31:28;;;;;;;18.65;14.80;;;;;;;;;;10020232;29;20554;-75
2023/06/24 03:36:25;;;;;;;14.80;13.30;;;;;;;;;;10035627;28;20047;-73
2023/06/24 03:41:21;;;;;;;15.43;13.88;;;;;;;;;;10036575;29;20395;-72
2023/06/24 03:46:17;;;;;;;16.50;14.50;;;;;;;;;;10038949;29;20071;-72
2023/06/24 03:51:13;;;;;;;14.93;13.43;;;;;;;;;;10037626;29;20074;-72
2023/06/24 03:56:10;;;;;;;16.08;13.93;;;;;;;;;;10032478;29;20071;-73
2023/06/24 04:01:06;;;;;;;15.73;13.95;;;;;;;;;;10033456;29;20568;-74
2023/06/24 04:06:02;;;;;;;15.70;14.05;;;;;;;;;;10030929;29;20458;-74
2023/06/24 04:11:00;;;;;;;15.07;13.68;;;;;;;;;;10029945;29;20055;-74
2023/06/24 04:15:56;;;;;;;16.50;14.02;;;;;;;;;;10029791;29;20506;-74
2023/06/24 04:20:52;;;;;;;14.13;12.68;;;;;;;;;;10017165;29;20051;-74
2023/06/24 04:25:48;;;;;;;15.95;12.73;;;;;;;;;;10017799;29;20502;-73
2023/06/24 04:30:45;;;;;;;13.88;11.60;;;;;;;;;;10031845;29;20048;-75
2023/06/24 04:35:41;;;;;;;15.05;13.05;;;;;;;;;;10034135;29;20048;-74
2023/06/24 04:40:37;;;;;;;11.52;10.50;;;;;;;;;;10028321;29;20086;-75
2023/06/24 04:45:34;;;;;;;12.82;11.02;;;;;;;;;;10032460;29;20470;-74
2023/06/24 04:50:31;;;;;;;11.52;10.45;;;;;;;;;;10031522;29;20070;-75
2023/06/24 04:55:29;;;;;;;17.45;9.45;;;;;;;;;;10021423;29;20164;-75
2023/06/24 05:00:26;;;;;;;10.40;9.35;;;;;;;;;;10032094;29;20047;-75
2023/06/24 05:05:22;;;;;;;11.63;8.75;;;;;;;;;;10030675;29;20080;-72
2023/06/24 05:10:19;;;;;;;9.98;8.98;;;;;;;;;;10032141;29;20079;-71
2023/06/24 05:15:15;;;;;;;11.27;10.18;;;;;;;;;;10029537;29;20053;-72
2023/06/24 05:20:12;;;;;;;10.85;9.82;;;;;;;;;;10029681;29;20043;-71
2023/06/24 05:25:08;;;;;;;11.73;9.68;;;;;;;;;;10028345;29;20055;-74
2023/06/24 05:30:08;;;;;;;9.15;8.30;;;;;;;;;;10028999;29;20419;-75
2023/06/24 05:35:04;;;;;;;10.32;8.50;;;;;;;;;;10031776;29;20055;-75
2023/06/24 05:40:01;;;;;;;12.25;9.05;;;;;;;;;;10032405;29;20055;-75
2023/06/24 05:44:57;;;;;;;9.55;8.65;;;;;;;;;;10030768;29;20054;-74
2023/06/24 05:49:54;;;;;;;10.63;8.15;;;;;;;;;;10024994;29;20051;-75
2023/06/24 05:54:50;;;;;;;11.48;8.48;;;;;;;;;;10032618;29;20059;-72
2023/06/24 05:59:46;;;;;;;12.05;8.63;;;;;;;;;;10029798;29;20778;-72
2023/06/24 06:04:43;;;;;;;10.63;7.93;;;;;;;;;;10027733;29;20059;-71
2023/06/24 06:09:39;;;;;;;11.43;7.57;;;;;;;;;;10012601;29;20044;-76
2023/06/24 06:14:35;;;;;;;10.02;7.72;;;;;;;;;;10029363;29;20498;-75
2023/06/24 06:19:32;;;;;;;10.63;8.38;;;;;;;;;;10008832;29;20075;-76
2023/06/24 06:24:28;;;;;;;8.93;7.80;;;;;;;;;;10031378;29;20063;-74
2023/06/24 06:29:25;;;;;;;9.93;7.75;;;;;;;;;;10029905;29;20051;-72
2023/06/24 06:34:21;;;;;;;12.18;7.97;;;;;;;;;;10031277;29;20059;-75
2023/06/24 06:39:17;;;;;;;8.50;7.13;;;;;;;;;;10027418;29;20051;-75
2023/06/24 06:44:14;;;;;;;9.75;7.93;;;;;;;;;;10035276;29;20064;-75
2023/06/24 06:49:10;;;;;;;9.85;8.35;;;;;;;;;;10029679;29;20051;-76
2023/06/24 06:54:06;;;;;;;9.35;7.63;;;;;;;;;;10033794;29;20040;-75
2023/06/24 06:59:03;;;;;;;9.60;8.20;;;;;;;;;;10030795;29;20052;-74
2023/06/24 07:03:59;;;;;;;9.70;7.70;;;;;;;;;;10035381;29;20059;-73
2023/06/24 07:08:55;;;;;;;8.32;7.50;;;;;;;;;;10032727;29;20047;-75
2023/06/24 07:13:52;;;;;;;10.05;8.60;;;;;;;;;;10029836;29;20063;-73
2023/06/24 07:18:48;;;;;;;8.02;7.25;;;;;;;;;;10031384;29;20048;-73
2023/06/24 07:23:45;;;;;;;9.18;8.02;;;;;;;;;;10037903;29;20525;-74
2023/06/24 07:28:42;;;;;;;8.15;7.35;;;;;;;;;;10030934;29;20510;-73
2023/06/24 07:33:41;;;;;;;9.38;8.23;;;;;;;;;;10035106;29;20052;-73
2023/06/24 07:38:38;;;;;;;8.23;7.43;;;;;;;;;;10026928;29;20119;-72
2023/06/24 07:43:34;;;;;;;8.48;7.68;;;;;;;;;;10027581;29;20056;-71
2023/06/24 07:48:30;;;;;;;7.95;7.30;;;;;;;;;;10024366;29;20047;-72
2023/06/24 07:53:27;;;;;;;8.15;7.40;;;;;;;;;;10013596;29;20044;-72
2023/06/24 07:58:23;;;;;;;9.38;8.18;;;;;;;;;;10028338;29;20043;-72
2023/06/24 08:03:21;;;;;;;9.10;8.20;;;;;;;;;;10031507;29;20046;-72
2023/06/24 08:08:19;;;;;;;8.50;7.70;;;;;;;;;;10027461;29;20052;-72
2023/06/24 08:13:16;;;;;;;8.60;7.80;;;;;;;;;;10034045;29;20499;-72
2023/06/24 08:18:12;;;;;;;9.38;8.50;;;;;;;;;;10033543;29;20418;-70
2023/06/24 08:23:09;;;;;;;9.15;8.35;;;;;;;;;;10024543;29;20051;-69
2023/06/24 08:28:06;;;;;;;9.10;8.35;;;;;;;;;;10011168;29;20047;-79
2023/06/24 08:33:02;;;;;;;9.10;8.30;;;;;;;;;;10024980;29;20533;-71
2023/06/24 08:37:59;;;;;;;9.48;8.38;;;;;;;;;;10022491;29;20583;-72
2023/06/24 08:42:55;;;;;;;9.68;8.68;;;;;;;;;;10028583;29;20056;-71
2023/06/24 08:47:52;;;;;;;9.60;8.70;;;;;;;;;;10032638;29;20090;-71
2023/06/24 08:52:51;;;;;;;9.55;8.75;;;;;;;;;;10028684;29;20055;-71
2023/06/24 08:57:47;;;;;;;10.20;9.15;;;;;;;;;;10021983;29;20059;-71
2023/06/24 09:02:45;;;;;;;11.10;8.68;;;;;;;;;;10021577;29;20076;-70
2023/06/24 09:07:41;;;;;;;9.60;8.45;;;;;;;;;;10023826;29;20047;-72
2023/06/24 09:12:38;;;;;;;9.70;8.80;;;;;;;;;;10027763;29;20091;-71
2023/06/24 09:17:43;;;;;;;8.65;7.85;;;;;;;;;;10025443;29;20099;-70
2023/06/24 09:22:43;;;;;;;8.98;8.18;;;;;;;;;;10029531;29;20061;-72
2023/06/24 09:27:40;;;;;;;9.30;8.02;;;;;;;;;;10029884;29;21177;-71
2023/06/24 09:32:36;;;;;;;9.40;8.50;;;;;;;;;;10020810;29;20455;-71
2023/06/24 09:37:33;;;;;;;8.82;8.02;;;;;;;;;;10023671;29;20051;-71
2023/06/24 09:42:30;;;;;;;9.93;9.02;;;;;;;;;;10030773;29;20072;-70
2023/06/24 09:47:27;;;;;;;9.30;8.50;;;;;;;;;;10027339;29;20177;-71
2023/06/24 09:52:26;;;;;;;10.93;9.43;;;;;;;;;;10028955;29;20225;-72
2023/06/24 09:57:27;;;;;;;8.98;8.20;;;;;;;;;;10023956;29;20050;-72
2023/06/24 10:02:23;;;;;;;10.48;9.25;;;;;;;;;;10027367;29;20044;-74
2023/06/24 10:07:20;;;;;;;8.35;7.65;;;;;;;;;;10010725;29;20086;-72
2023/06/24 10:12:16;;;;;;;9.15;8.23;;;;;;;;;;10018012;29;20043;-73
2023/06/24 10:17:13;;;;;;;9.80;8.90;;;;;;;;;;10019987;29;20047;-73
2023/06/24 10:22:12;;;;;;;9.45;8.55;;;;;;;;;;10007869;29;20146;-72
2023/06/24 10:27:13;;;;;;;9.98;8.10;;;;;;;;;;10014086;29;20473;-72
2023/06/24 10:32:09;;;;;;;12.95;9.35;;;;;;;;;;10036738;29;20044;-72
2023/06/24 10:37:19;;;;;;;9.32;8.50;;;;;;;;;;10035878;29;20051;-71
2023/06/24 10:42:34;;;;;;;9.43;8.10;;;;;;;;;;10032782;29;20051;-73
2023/06/24 10:47:30;;;;;;;9.40;8.52;;;;;;;;;;10036363;29;20536;-72
2023/06/24 10:52:27;;;;;;;9.85;8.63;;;;;;;;;;10035735;29;20048;-71
2023/06/24 10:57:24;;;;;;;9.10;8.30;;;;;;;;;;10032793;29;20050;-72
2023/06/24 11:02:21;;;;;;;9.48;8.57;;;;;;;;;;10031373;29;20079;-72
2023/06/24 11:07:19;;;;;;;10.20;9.30;;;;;;;;;;10035967;29;20047;-72
2023/06/24 11:12:16;;;;;;;9.82;8.98;;;;;;;;;;10035982;29;20047;-71
2023/06/24 11:17:12;;;;;;;10.48;9.65;;;;;;;;;;10033626;29;20063;-70
2023/06/24 11:22:09;;;;;;;10.40;9.43;;;;;;;;;;10032011;29;20087;-72
2023/06/24 11:27:05;;;;;;;10.38;9.48;;;;;;;;;;10035488;29;20153;-72
2023/06/24 11:32:02;;;;;;;9.55;8.73;;;;;;;;;;10035717;29;20044;-72
2023/06/24 11:37:09;;;;;;;10.00;9.20;;;;;;;;;;10032724;29;20043;-72
2023/06/24 11:42:08;;;;;;;10.07;8.90;;;;;;;;;;10034360;29;20055;-72
2023/06/24 11:47:05;;;;;;;10.07;9.13;;;;;;;;;;10026262;29;20072;-72
2023/06/24 11:52:03;;;;;;;9.55;8.65;;;;;;;;;;10035487;29;20066;-72
2023/06/24 11:56:59;;;;;;;9.98;9.07;;;;;;;;;;10029632;29;20079;-72
2023/06/24 12:01:59;;;;;;;9.85;8.90;;;;;;;;;;10030897;29;20074;-71
2023/06/24 12:06:56;;;;;;;10.52;9.73;;;;;;;;;;10033718;29;20059;-72
2023/06/24 12:11:52;;;;;;;11.07;10.18;;;;;;;;;;10027854;29;20048;-72
2023/06/24 12:16:48;;;;;;;10.07;9.02;;;;;;;;;;10034121;29;20502;-72
2023/06/24 12:21:44;;;;;;;11.43;10.18;;;;;;;;;;10032360;29;20499;-72
2023/06/24 12:26:41;;;;;;;11.27;10.27;;;;;;;;;;10034507;29;20052;-72
2023/06/24 12:31:37;;;;;;;10.70;9.70;;;;;;;;;;10033335;29;20107;-72
2023/06/24 12:36:33;;;;;;;10.65;9.63;;;;;;;;;;10029736;29;20639;-72
2023/06/24 12:41:30;;;;;;;12.27;9.50;;;;;;;;;;10016394;29;20059;-72
2023/06/24 12:46:26;;;;;;;9.93;8.95;;;;;;;;;;10032377;29;20047;-72
2023/06/24 12:51:23;;;;;;;10.68;9.18;;;;;;;;;;10016562;29;20055;-72
2023/06/24 12:56:19;;;;;;;10.13;9.23;;;;;;;;;;10024974;29;20090;-72
2023/06/24 13:01:16;;;;;;;10.85;9.85;;;;;;;;;;10028375;29;20605;-72
2023/06/24 13:06:15;;;;;;;8.90;8.20;;;;;;;;;;10013995;29;20043;-72
2023/06/24 13:11:12;;;;;;;9.43;8.52;;;;;;;;;;10037798;29;20075;-72
2023/06/24 13:16:08;;;;;;;9.85;8.90;;;;;;;;;;10016643;29;20628;-72
2023/06/24 13:21:05;;;;;;;9.35;8.52;;;;;;;;;;10015971;29;20087;-72
2023/06/24 13:26:12;;;;;;;9.43;8.55;;;;;;;;;;10023872;29;20058;-72
2023/06/24 13:31:08;;;;;;;9.48;8.68;;;;;;;;;;10015248;29;20529;-72
2023/06/24 13:36:06;;;;;;;11.73;9.10;;;;;;;;;;10013919;29;20047;-72
2023/06/24 13:41:03;;;;;;;9.23;8.50;;;;;;;;;;10028755;29;20055;-72
2023/06/24 13:45:59;;;;;;;9.63;8.73;;;;;;;;;;10031745;29;20055;-72
2023/06/24 13:50:55;;;;;;;9.75;8.85;;;;;;;;;;10026801;29;20119;-72
2023/06/24 13:55:52;;;;;;;9.50;8.80;;;;;;;;;;10027338;29;20533;-72
2023/06/24 14:00:51;;;;;;;9.57;8.77;;;;;;;;;;10027391;29;20047;-73
2023/06/24 14:05:47;;;;;;;9.00;8.30;;;;;;;;;;10026822;29;20044;-72
2023/06/24 14:10:44;;;;;;;9.65;8.70;;;;;;;;;;10022598;29;20135;-74
2023/06/24 14:15:40;;;;;;;8.88;8.18;;;;;;;;;;10031229;29;20451;-74
2023/06/24 14:20:37;;;;;;;9.52;8.20;;;;;;;;;;10032318;29;20059;-73
2023/06/24 14:25:33;;;;;;;9.75;8.90;;;;;;;;;;10025760;29;20056;-73
2023/06/24 14:30:29;;;;;;;9.40;8.70;;;;;;;;;;10014559;29;20086;-73
2023/06/24 14:35:26;;;;;;;9.57;8.77;;;;;;;;;;10025249;29;20162;-74
2023/06/24 14:40:22;;;;;;;9.85;9.05;;;;;;;;;;10026721;29;20466;-74
2023/06/24 14:45:18;;;;;;;9.10;8.35;;;;;;;;;;10027669;29;20056;-74
2023/06/24 14:50:15;;;;;;;9.27;8.48;;;;;;;;;;10024835;29;20127;-73
2023/06/24 14:55:11;;;;;;;9.18;8.45;;;;;;;;;;10024896;29;20056;-74
2023/06/24 15:00:08;;;;;;;9.20;8.40;;;;;;;;;;10028700;29;20417;-73
2023/06/24 15:05:04;;;;;;;9.00;8.13;;;;;;;;;;10029946;29;20051;-74
2023/06/24 15:10:01;;;;;;;9.35;8.43;;;;;;;;;;10022219;29;20050;-73
2023/06/24 15:14:57;;;;;;;10.05;9.15;;;;;;;;;;10036222;29;20490;-75
2023/06/24 15:19:53;;;;;;;9.50;8.68;;;;;;;;;;10036151;29;20145;-73
2023/06/24 15:24:50;;;;;;;9.63;8.80;;;;;;;;;;10032957;29;20425;-73
2023/06/24 15:29:46;;;;;;;9.60;8.80;;;;;;;;;;10036663;29;20044;-72
2023/06/24 15:34:42;;;;;;;10.27;9.35;;;;;;;;;;10013887;29;20502;-73
2023/06/24 15:39:39;;;;;;;9.70;8.77;;;;;;;;;;10032722;29;20533;-73
2023/06/24 15:44:35;;;;;;;9.50;8.20;;;;;;;;;;10033497;29;20039;-73
2023/06/24 15:49:31;;;;;;;9.38;8.43;;;;;;;;;;10014311;29;20521;-72
2023/06/24 15:54:28;;;;;;;10.07;9.23;;;;;;;;;;10014352;29;20043;-73
2023/06/24 15:59:24;;;;;;;9.73;8.80;;;;;;;;;;10025741;29;20888;-73
2023/06/24 16:04:21;;;;;;;9.60;8.70;;;;;;;;;;10014521;29;20047;-73
2023/06/24 16:09:17;;;;;;;9.60;8.70;;;;;;;;;;10029421;29;20099;-74
2023/06/24 16:14:13;;;;;;;9.68;8.27;;;;;;;;;;10027052;29;20256;-71
2023/06/24 16:19:10;;;;;;;9.57;8.68;;;;;;;;;;10028384;29;20052;-71
2023/06/24 16:24:06;;;;;;;9.48;8.52;;;;;;;;;;10009564;29;20095;-71
2023/06/24 16:29:02;;;;;;;9.15;8.35;;;;;;;;;;10025873;29;20079;-71
2023/06/24 16:33:59;;;;;;;9.15;7.90;;;;;;;;;;10028154;29;20502;-71
2023/06/24 16:38:55;;;;;;;9.27;8.38;;;;;;;;;;10027052;29;20047;-72
2023/06/24 16:43:51;;;;;;;9.20;8.40;;;;;;;;;;10030061;29;20079;-71
2023/06/24 16:48:48;;;;;;;11.60;8.82;;;;;;;;;;10029010;29;20075;-71
2023/06/24 16:53:44;;;;;;;9.75;8.82;;;;;;;;;;10032303;29;20051;-71
2023/06/24 16:58:40;;;;;;;10.30;8.38;;;;;;;;;;10029903;29;20127;-71
2023/06/24 17:03:37;;;;;;;11.48;8.57;;;;;;;;;;10033308;29;20044;-71
2023/06/24 17:08:33;;;;;;;9.75;8.85;;;;;;;;;;10033463;29;20182;-71
2023/06/24 17:13:29;;;;;;;9.65;8.63;;;;;;;;;;10030174;29;20079;-72
2023/06/24 17:18:26;;;;;;;10.63;9.55;;;;;;;;;;10026513;29;20122;-71
2023/06/24 17:23:22;;;;;;;9.68;8.75;;;;;;;;;;10020465;29;20048;-71
2023/06/24 17:28:18;;;;;;;10.13;9.05;;;;;;;;;;10031579;29;20083;-71
2023/06/24 17:33:14;;;;;;;9.02;8.23;;;;;;;;;;10027781;29;20422;-71
2023/06/24 17:38:11;;;;;;;9.70;8.57;;;;;;;;;;10030872;29;20052;-71
2023/06/24 17:43:07;;;;;;;9.55;8.70;;;;;;;;;;10031637;29;20078;-71
2023/06/24 17:48:04;;;;;;;8.75;7.93;;;;;;;;;;10030509;29;20075;-72
2023/06/24 17:53:00;;;;;;;8.70;7.90;;;;;;;;;;10029881;29;20056;-71
2023/06/24 17:57:57;;;;;;;8.63;7.80;;;;;;;;;;10026903;29;20076;-71
2023/06/24 18:02:53;;;;;;;8.95;8.15;;;;;;;;;;10025179;29;20055;-71
2023/06/24 18:07:49;;;;;;;8.82;7.97;;;;;;;;;;10022019;29;21837;-72
2023/06/24 18:12:46;;;;;;;9.43;8.52;;;;;;;;;;10031317;29;20506;-72
2023/06/24 18:17:42;;;;;;;8.00;7.30;;;;;;;;;;10027853;29;20059;-71
2023/06/24 18:22:38;;;;;;;9.75;8.30;;;;;;;;;;10025528;29;20120;-71
2023/06/24 18:27:35;;;;;;;9.13;8.32;;;;;;;;;;10004598;29;20039;-71
2023/06/24 18:32:31;;;;;;;10.43;9.43;;;;;;;;;;10031312;29;20058;-71
2023/06/24 18:37:30;;;;;;;10.27;8.52;;;;;;;;;;10010621;29;20043;-71
2023/06/24 18:42:26;;;;;;;10.32;8.88;;;;;;;;;;10028248;29;20051;-71
2023/06/24 18:47:23;;;;;;;9.02;7.93;;;;;;;;;;10031637;29;20095;-71
2023/06/24 18:52:19;;;;;;;8.57;7.78;;;;;;;;;;10034770;29;20145;-71
2023/06/24 18:57:15;;;;;;;9.18;7.88;;;;;;;;;;10031241;29;20063;-71
2023/06/24 19:02:12;;;;;;;10.23;8.48;;;;;;;;;;10018877;29;20115;-71
2023/06/24 19:07:08;;;;;;;9.60;8.70;;;;;;;;;;10036580;29;20050;-71
2023/06/24 19:12:04;;;;;;;8.90;8.10;;;;;;;;;;10029602;29;20047;-71
2023/06/24 19:17:01;;;;;;;9.27;8.48;;;;;;;;;;10037217;29;20718;-71
2023/06/24 19:21:57;;;;;;;9.07;7.82;;;;;;;;;;10034550;29;20044;-71
2023/06/24 19:26:53;;;;;;;8.20;7.50;;;;;;;;;;10034537;29;20074;-71
2023/06/24 19:31:50;;;;;;;9.40;8.50;;;;;;;;;;10015410;29;20446;-71
2023/06/24 19:36:46;;;;;;;10.65;8.25;;;;;;;;;;10015313;29;20059;-71
2023/06/24 19:41:42;;;;;;;11.35;9.02;;;;;;;;;;10036612;29;20100;-71
2023/06/24 19:46:39;;;;;;;10.50;9.40;;;;;;;;;;10029467;29;20066;-71
2023/06/24 19:51:38;;;;;;;9.13;8.23;;;;;;;;;;10033816;29;20134;-72
2023/06/24 19:56:34;;;;;;;10.13;7.90;;;;;;;;;;10032109;29;20052;-71
2023/06/24 20:01:31;;;;;;;8.68;7.95;;;;;;;;;;10034486;29;20044;-71
2023/06/24 20:06:27;;;;;;;9.38;8.38;;;;;;;;;;10034654;29;20114;-71
2023/06/24 20:11:24;;;;;;;10.15;9.10;;;;;;;;;;10035496;29;20047;-71
2023/06/24 20:16:20;;;;;;;10.73;9.63;;;;;;;;;;10030820;29;20082;-71
2023/06/24 20:21:16;;;;;;;10.60;9.60;;;;;;;;;;10031409;29;20055;-71
2023/06/24 20:26:13;;;;;;;10.40;9.40;;;;;;;;;;10032763;29;20040;-71
2023/06/24 20:31:09;;;;;;;10.30;9.25;;;;;;;;;;10031615;29;20601;-71
2023/06/24 20:36:05;;;;;;;10.50;9.40;;;;;;;;;;10029409;29;20047;-71
2023/06/24 20:41:02;;;;;;;9.70;8.80;;;;;;;;;;10032792;29;20043;-71
2023/06/24 20:45:59;;;;;;;10.40;9.40;;;;;;;;;;10033509;29;20055;-71
2023/06/24 20:50:55;;;;;;;10.40;9.40;;;;;;;;;;10028298;29;20081;-71
2023/06/24 20:55:52;;;;;;;11.75;10.00;;;;;;;;;;10029701;29;20064;-70
2023/06/24 21:00:48;;;;;;;10.60;9.60;;;;;;;;;;10015983;29;20720;-71
2023/06/24 21:05:45;;;;;;;12.57;10.68;;;;;;;;;;10031663;29;20432;-70
2023/06/24 21:10:41;;;;;;;11.40;10.30;;;;;;;;;;10033409;29;20055;-70
2023/06/24 21:15:37;;;;;;;11.07;9.75;;;;;;;;;;10028462;29;20047;-70
2023/06/24 21:20:33;;;;;;;13.18;10.82;;;;;;;;;;10031827;29;20063;-70
2023/06/24 21:25:30;;;;;;;11.52;10.32;;;;;;;;;;10009094;29;20502;-70
2023/06/24 21:30:27;;;;;;;12.05;10.68;;;;;;;;;;10031926;29;20395;-70
2023/06/24 21:35:23;;;;;;;12.60;11.40;;;;;;;;;;10023564;29;20062;-70
2023/06/24 21:40:19;;;;;;;15.82;11.85;;;;;;;;;;10029156;29;20058;-71
2023/06/24 21:45:16;;;;;;;13.18;10.82;;;;;;;;;;10024140;29;20062;-71
2023/06/24 21:50:12;;;;;;;13.55;11.75;;;;;;;;;;10031476;29;20051;-71
2023/06/24 21:55:09;;;;;;;14.77;11.35;;;;;;;;;;10026565;29;20044;-71
2023/06/24 22:00:07;;;;;;;12.85;11.55;;;;;;;;;;10030267;29;20051;-71
2023/06/24 22:05:04;;;;;;;12.75;11.38;;;;;;;;;;10030213;29;20050;-71
2023/06/24 22:10:00;;;;;;;13.38;10.88;;;;;;;;;;10028184;29;20525;-71
2023/06/24 22:14:56;;;;;;;12.65;11.07;;;;;;;;;;10030145;29;20066;-71
2023/06/24 22:19:53;;;;;;;13.43;12.00;;;;;;;;;;10020272;29;20058;-71
2023/06/24 22:24:49;;;;;;;14.90;13.40;;;;;;;;;;10035615;29;20052;-71
2023/06/24 22:29:45;;;;;;;12.68;11.35;;;;;;;;;;10028899;29;20487;-71
2023/06/24 22:34:42;;;;;;;13.75;12.32;;;;;;;;;;10032771;29;20047;-71
2023/06/24 22:39:38;;;;;;;13.32;12.13;;;;;;;;;;10036985;29;21329;-71
2023/06/24 22:44:34;;;;;;;13.68;12.38;;;;;;;;;;10036300;29;20059;-71
2023/06/24 22:49:32;;;;;;;13.57;12.20;;;;;;;;;;10033716;29;20039;-71
2023/06/24 22:54:28;;;;;;;14.25;12.93;;;;;;;;;;10035292;29;20498;-71
2023/06/24 22:59:25;;;;;;;13.43;12.23;;;;;;;;;;10053674;23;20098;-71
2023/06/24 23:04:21;;;;;;;15.57;13.98;;;;;;;;;;10058388;28;20075;-71
2023/06/24 23:09:18;;;;;;;14.32;12.82;;;;;;;;;;10065472;29;20047;-71
2023/06/24 23:14:15;;;;;;;15.55;14.05;;;;;;;;;;10034409;29;20047;-71
2023/06/24 23:19:11;;;;;;;14.93;13.40;;;;;;;;;;10026290;29;20052;-71
2023/06/24 23:24:08;;;;;;;15.85;13.20;;;;;;;;;;10025509;29;20112;-71
2023/06/24 23:29:08;;;;;;;14.45;13.05;;;;;;;;;;10030512;29;20063;-72
2023/06/24 23:34:06;;;;;;;14.57;13.10;;;;;;;;;;10024664;29;20043;-71
2023/06/24 23:39:03;;;;;;;15.25;13.75;;;;;;;;;;10036095;29;20470;-72
2023/06/24 23:44:00;;;;;;;14.80;13.30;;;;;;;;;;10023766;29;20048;-72
2023/06/24 23:54:08;;;;;;;14.02;12.63;;;;;;;;;;9671391;26;20043;-72
2023/06/24 23:59:04;;;;;;;14.50;13.10;;;;;;;;;;10024970;29;20384;-72
